Barmouth, United Kingdom
Current Conditions -  °F | °C
As of 8:50 PM on Friday 28 Nov 2014 (Local Time) from EGOV Reporting Station
Haze Haze  
Wind Chill: 50°   Ceiling: Unl
Heat Index: 50°   Visibility: 5mi
Dew Point: 46°   Wind: 13mph
Humidity: 87%   Direction: 70°ENE
Pressure: 29.71"   Gusts: NA
Location:  52.72°N, 4.06°W
Report Text: EGOV 282050Z AUTO 07011KT 8000 HZ NCD 10/08 Q1006
Loading
Personal Weather Stations






























Interactive Weather Map New forecast layout! Learn more

10-Day Weather Forecast

Advertisements
Track Severe Weather on mobile